LFQB 251000Z AUTO 25010KT 9999 BKN026 BKN031 BKN043 21/14 Q1017

ElémentsDécodage
LFQB Station météo située sur l'aérodrome de TROYES Barberey
251000Z émis le 25 du mois à 10h00 UTC
AUTO Bulletin édité par un automate
25010KT vent du 250°, 10 noeuds
9999 visibilité horizontale supérieure à 10 Km
BKN026 nuages morcelés (5/8 à 7/8) à 2600 pieds
BKN031 nuages morcelés (5/8 à 7/8) à 3100 pieds
BKN043 nuages morcelés (5/8 à 7/8) à 4300 pieds
21/14 température 21°C, point de rosée 14°C
 soit une humidité relative de 64%
Q1017 la pression au niveau de la mer (QNH) est de 1017 hPa